Time;durP1;ratioP1;P1;durP2;ratioP2;P2;SDS_P1;SDS_P2;PMS_P1;PMS_P2;Temp;Humidity;BMP_temperature;BMP_pressure;BME280_temperature;BME280_humidity;BME280_pressure;Samples;Min_cycle;Max_cycle;Signal;HPM_P1;HPM_P2
2021/08/10 00:02:18;;;;;;;13.73;11.03;;;14.10;99.90;;;;;;6309090;22;20179;-85
2021/08/10 00:04:48;;;;;;;14.57;10.60;;;14.00;99.90;;;;;;6301824;22;20655;-84
2021/08/10 00:07:17;;;;;;;13.13;10.57;;;13.90;99.90;;;;;;6293134;22;20705;-84
2021/08/10 00:09:46;;;;;;;14.57;11.17;;;13.90;99.90;;;;;;6294214;22;20243;-85
2021/08/10 00:12:17;;;;;;;14.83;10.17;;;13.80;99.90;;;;;;6302270;22;20271;-82
2021/08/10 00:14:47;;;;;;;15.00;10.97;;;13.80;99.90;;;;;;6307179;22;20980;-87
2021/08/10 00:17:16;;;;;;;17.30;10.37;;;13.80;99.90;;;;;;6307578;22;20176;-82
2021/08/10 00:19:45;;;;;;;12.97;10.20;;;13.80;99.90;;;;;;6297095;22;20190;-84
2021/08/10 00:22:14;;;;;;;16.77;11.30;;;13.80;99.90;;;;;;6294195;22;20183;-83
2021/08/10 00:24:43;;;;;;;15.63;10.33;;;13.80;99.90;;;;;;6295362;22;20420;-83
2021/08/10 00:27:14;;;;;;;17.37;10.47;;;13.80;99.90;;;;;;6292219;22;20196;-83
2021/08/10 00:29:46;;;;;;;15.47;10.43;;;13.80;99.90;;;;;;6298864;22;20213;-83
2021/08/10 00:32:16;;;;;;;13.23;9.97;;;13.80;99.90;;;;;;6301441;22;20309;-83
2021/08/10 00:34:44;;;;;;;14.30;10.17;;;13.80;99.90;;;;;;6305589;22;20334;-82
2021/08/10 00:37:13;;;;;;;14.00;9.93;;;13.80;99.90;;;;;;6322831;22;20683;-84
2021/08/10 00:39:45;;;;;;;15.43;10.13;;;13.80;99.90;;;;;;6317920;22;20709;-83
2021/08/10 00:42:14;;;;;;;16.23;9.97;;;13.90;99.90;;;;;;6320872;22;20161;-83
2021/08/10 00:44:46;;;;;;;11.57;9.10;;;14.00;99.90;;;;;;6317457;22;20184;-84
2021/08/10 00:47:14;;;;;;;16.33;10.07;;;14.00;99.90;;;;;;6309217;22;20575;-83
2021/08/10 00:49:43;;;;;;;15.87;10.97;;;14.00;99.90;;;;;;6303708;22;20937;-83
2021/08/10 00:52:13;;;;;;;16.93;9.83;;;13.90;99.90;;;;;;6294386;22;20172;-84
2021/08/10 00:54:42;;;;;;;14.73;10.43;;;14.00;99.90;;;;;;6295247;22;20171;-83
2021/08/10 00:57:11;;;;;;;16.70;9.37;;;14.00;99.90;;;;;;6293049;22;20202;-83
2021/08/10 00:59:40;;;;;;;14.77;10.27;;;13.90;99.90;;;;;;6295590;22;20485;-83
2021/08/10 01:02:11;;;;;;;11.40;9.20;;;13.90;99.90;;;;;;6294678;22;20707;-83
2021/08/10 01:04:39;;;;;;;11.10;9.47;;;13.90;99.90;;;;;;6293237;22;20160;-86
2021/08/10 01:07:15;;;;;;;13.97;9.40;;;13.90;99.90;;;;;;6292160;22;20290;-83
2021/08/10 01:10:02;;;;;;;14.03;9.30;;;13.90;99.90;;;;;;6294611;22;20807;-84
2021/08/10 01:12:36;;;;;;;17.33;9.70;;;13.90;99.90;;;;;;6298290;22;20238;-83
2021/08/10 01:15:11;;;;;;;12.67;9.53;;;13.90;99.90;;;;;;6292310;22;20165;-84
2021/08/10 01:17:46;;;;;;;10.83;9.10;;;13.90;99.90;;;;;;6294490;22;20164;-84
2021/08/10 01:20:33;;;;;;;14.10;8.97;;;13.90;99.90;;;;;;6294469;22;20245;-83
2021/08/10 01:23:04;;;;;;;13.27;9.20;;;13.90;99.90;;;;;;6297024;22;20225;-84
2021/08/10 01:25:50;;;;;;;11.97;8.67;;;13.80;99.90;;;;;;6296663;22;20184;-83
2021/08/10 01:28:37;;;;;;;11.00;8.60;;;13.80;99.90;;;;;;6293038;22;20195;-85
2021/08/10 01:31:27;;;;;;;10.13;8.37;;;13.70;99.90;;;;;;6298268;22;20857;-84
2021/08/10 01:34:02;;;;;;;11.20;8.20;;;13.70;99.90;;;;;;6296011;22;20184;-85
2021/08/10 01:36:33;;;;;;;11.03;8.70;;;13.60;99.90;;;;;;6259378;22;20199;-84
2021/08/10 01:39:03;;;;;;;13.37;8.97;;;13.50;99.90;;;;;;6294316;22;20477;-83
2021/08/10 01:41:34;;;;;;;12.73;9.10;;;13.50;99.90;;;;;;6300202;22;20164;-82
2021/08/10 01:44:05;;;;;;;11.40;8.63;;;13.50;99.90;;;;;;6302267;22;20175;-84
2021/08/10 01:46:38;;;;;;;10.33;7.90;;;13.40;99.90;;;;;;6278291;22;20178;-85
2021/08/10 01:49:07;;;;;;;11.23;7.70;;;13.40;99.90;;;;;;6304939;22;20252;-84
2021/08/10 01:51:37;;;;;;;11.40;9.10;;;13.40;99.90;;;;;;6306579;22;20672;-83
2021/08/10 01:54:09;;;;;;;12.93;8.53;;;13.40;99.90;;;;;;6337024;22;20171;-82
2021/08/10 01:56:38;;;;;;;13.07;8.57;;;13.40;99.90;;;;;;6337212;22;20184;-86
2021/08/10 01:59:08;;;;;;;11.97;8.67;;;13.30;99.90;;;;;;6336727;22;20172;-85
2021/08/10 02:01:49;;;;;;;9.87;7.97;;;13.30;99.90;;;;;;6325399;22;20539;-84
2021/08/10 02:04:21;;;;;;;10.13;7.73;;;13.30;99.90;;;;;;6319388;22;20266;-84
2021/08/10 02:06:50;;;;;;;10.37;7.63;;;13.30;99.90;;;;;;6315319;22;20258;-86
2021/08/10 02:09:21;;;;;;;10.00;7.87;;;13.30;99.90;;;;;;6317755;22;20195;-84
2021/08/10 02:11:53;;;;;;;10.63;7.97;;;13.30;99.90;;;;;;6322722;22;20168;-83
2021/08/10 02:14:26;;;;;;;9.03;7.93;;;13.30;99.90;;;;;;6334166;22;20172;-84
2021/08/10 02:16:58;;;;;;;8.47;7.67;;;13.30;99.90;;;;;;6330693;22;20179;-84
2021/08/10 02:19:28;;;;;;;12.00;8.90;;;13.30;99.90;;;;;;6333852;22;20187;-86
2021/08/10 02:22:02;;;;;;;12.37;7.67;;;13.30;99.90;;;;;;6334580;22;20605;-83
2021/08/10 02:24:37;;;;;;;9.10;7.27;;;13.20;99.90;;;;;;6333513;22;20187;-85
2021/08/10 02:27:10;;;;;;;10.37;7.53;;;13.20;99.90;;;;;;6327245;22;20190;-87
2021/08/10 02:29:41;;;;;;;11.77;7.43;;;13.20;99.90;;;;;;6333097;22;20228;-84
2021/08/10 02:32:17;;;;;;;14.37;8.37;;;13.20;99.90;;;;;;6334643;22;20175;-84
2021/08/10 02:34:46;;;;;;;10.67;7.73;;;13.20;99.90;;;;;;6331786;22;20177;-84
2021/08/10 02:37:18;;;;;;;10.63;7.77;;;13.10;99.90;;;;;;6334899;22;20164;-85
2021/08/10 02:40:22;;;;;;;10.57;7.90;;;13.10;99.90;;;;;;6335104;22;20160;-86
2021/08/10 02:42:54;;;;;;;12.40;7.80;;;13.10;99.90;;;;;;6335143;22;20156;-84
2021/08/10 02:45:24;;;;;;;9.30;8.07;;;13.10;99.90;;;;;;6336016;22;20168;-85
2021/08/10 02:47:58;;;;;;;13.27;8.07;;;13.10;99.90;;;;;;6318072;22;20162;-85
2021/08/10 02:50:29;;;;;;;11.17;8.00;;;13.10;99.90;;;;;;6319984;22;20236;-84
2021/08/10 02:52:58;;;;;;;11.13;9.20;;;13.10;99.90;;;;;;6319862;22;20168;-84
2021/08/10 02:55:28;;;;;;;10.03;8.97;;;13.10;99.90;;;;;;6308232;22;20618;-83
2021/08/10 02:58:05;;;;;;;9.90;8.23;;;13.20;99.90;;;;;;6309274;22;20160;-86
2021/08/10 03:00:41;;;;;;;9.43;8.30;;;13.20;99.90;;;;;;6317204;22;20251;-83
2021/08/10 03:03:17;;;;;;;10.40;8.47;;;13.20;99.90;;;;;;6334955;22;20264;-85
2021/08/10 03:05:48;;;;;;;12.27;8.40;;;13.30;99.90;;;;;;6328071;22;20171;-84
2021/08/10 03:08:23;;;;;;;14.00;8.30;;;13.30;99.90;;;;;;6321729;22;20270;-85
2021/08/10 03:10:54;;;;;;;11.53;8.23;;;13.30;99.90;;;;;;6324670;22;20160;-84
2021/08/10 03:13:25;;;;;;;8.17;7.00;;;13.20;99.90;;;;;;6333720;22;20179;-84
2021/08/10 03:15:57;;;;;;;10.20;8.00;;;13.20;99.90;;;;;;6332189;22;20148;-83
2021/08/10 03:18:35;;;;;;;9.40;8.33;;;13.20;99.90;;;;;;6329919;22;20163;-84
2021/08/10 03:21:05;;;;;;;11.77;8.23;;;13.10;99.90;;;;;;6330442;22;20167;-85
2021/08/10 03:23:36;;;;;;;9.47;8.00;;;13.10;99.90;;;;;;6331875;22;20168;-85
2021/08/10 03:26:08;;;;;;;11.63;8.60;;;13.20;99.90;;;;;;6334498;22;20157;-84
2021/08/10 03:28:41;;;;;;;11.73;8.27;;;13.10;99.90;;;;;;6328281;22;20212;-85
2021/08/10 03:31:11;;;;;;;10.23;8.33;;;13.10;99.90;;;;;;6329693;22;20164;-82
2021/08/10 03:33:42;;;;;;;11.37;8.03;;;13.10;99.90;;;;;;6312692;22;20227;-84
2021/08/10 03:36:13;;;;;;;9.17;8.27;;;13.10;99.90;;;;;;6330680;22;20255;-83
2021/08/10 03:38:42;;;;;;;13.77;8.40;;;13.10;99.90;;;;;;6324657;22;20176;-85
2021/08/10 03:41:11;;;;;;;14.97;8.47;;;13.10;99.90;;;;;;6322398;22;20172;-83
2021/08/10 03:43:41;;;;;;;11.67;8.17;;;13.10;99.90;;;;;;6323301;22;20156;-83
2021/08/10 03:46:10;;;;;;;12.07;8.80;;;13.00;99.90;;;;;;6328865;22;20184;-82
2021/08/10 03:48:43;;;;;;;10.20;8.37;;;13.10;99.90;;;;;;6321714;22;20207;-84
2021/08/10 03:51:14;;;;;;;10.73;8.50;;;13.10;99.90;;;;;;6292895;22;20168;-86
2021/08/10 03:53:43;;;;;;;11.53;8.47;;;13.10;99.90;;;;;;6319990;22;20259;-84
2021/08/10 03:56:14;;;;;;;10.70;9.27;;;13.10;99.90;;;;;;6309650;22;20174;-84
2021/08/10 03:58:48;;;;;;;11.97;9.03;;;13.10;99.90;;;;;;6305978;22;20180;-85
2021/08/10 04:01:19;;;;;;;12.53;9.63;;;13.10;99.90;;;;;;6305534;22;20160;-83
2021/08/10 04:03:54;;;;;;;12.00;8.67;;;13.20;99.90;;;;;;6303457;22;20180;-85
2021/08/10 04:06:25;;;;;;;11.40;8.83;;;13.20;99.90;;;;;;6306592;22;20246;-84
2021/08/10 04:08:57;;;;;;;15.27;10.43;;;13.20;99.90;;;;;;6301260;22;20918;-84
2021/08/10 04:11:26;;;;;;;11.37;8.87;;;13.30;99.90;;;;;;6304071;22;20619;-84
2021/08/10 04:13:55;;;;;;;12.83;9.50;;;13.40;99.90;;;;;;6300429;22;20183;-84
2021/08/10 04:16:26;;;;;;;12.63;10.27;;;13.40;99.90;;;;;;6315047;22;20180;-86
2021/08/10 04:18:59;;;;;;;12.03;9.43;;;13.50;99.90;;;;;;6268071;22;20196;-85
2021/08/10 04:21:28;;;;;;;12.80;9.30;;;13.60;99.90;;;;;;6301236;22;20171;-83
2021/08/10 04:24:04;;;;;;;10.73;8.93;;;13.70;99.90;;;;;;6301499;22;20699;-83
2021/08/10 04:26:33;;;;;;;11.50;8.80;;;13.80;99.90;;;;;;6295891;22;20233;-84
2021/08/10 04:29:03;;;;;;;10.10;8.33;;;13.90;99.90;;;;;;6295337;22;20208;-85
2021/08/10 04:31:32;;;;;;;10.90;9.67;;;14.00;99.90;;;;;;6296281;22;20191;-82
2021/08/10 04:34:03;;;;;;;11.93;10.07;;;14.10;99.90;;;;;;6304502;22;20357;-84
2021/08/10 04:36:32;;;;;;;12.00;10.00;;;14.10;99.90;;;;;;6303274;22;21112;-84
2021/08/10 04:39:01;;;;;;;11.13;10.03;;;14.30;99.90;;;;;;6303478;22;20176;-84
2021/08/10 04:41:30;;;;;;;12.63;10.63;;;14.50;99.90;;;;;;6316112;22;20227;-85
2021/08/10 04:43:59;;;;;;;11.70;10.50;;;14.70;99.90;;;;;;6329250;22;20165;-84
2021/08/10 04:46:29;;;;;;;11.10;9.90;;;14.70;99.90;;;;;;6331101;22;20163;-86
2021/08/10 04:48:58;;;;;;;13.43;9.80;;;14.80;99.90;;;;;;6321247;22;20172;-84
2021/08/10 04:51:29;;;;;;;13.07;9.77;;;15.10;99.90;;;;;;6313376;22;20299;-84
2021/08/10 04:53:58;;;;;;;10.33;9.17;;;15.10;99.90;;;;;;6302336;22;20168;-84
2021/08/10 04:56:26;;;;;;;14.60;10.30;;;15.10;99.90;;;;;;6294607;22;20275;-84
2021/08/10 04:58:55;;;;;;;11.73;10.17;;;15.10;99.90;;;;;;6295319;22;20179;-84
2021/08/10 05:01:25;;;;;;;11.87;10.47;;;15.20;99.90;;;;;;6302046;22;20171;-84
2021/08/10 05:03:54;;;;;;;14.00;11.20;;;15.30;99.90;;;;;;6311585;22;20172;-84
2021/08/10 05:06:23;;;;;;;17.20;11.10;;;15.30;99.90;;;;;;6309901;22;20217;-86
2021/08/10 05:08:54;;;;;;;13.47;10.97;;;15.40;99.90;;;;;;6301260;22;20197;-85
2021/08/10 05:11:26;;;;;;;12.20;10.47;;;15.60;99.90;;;;;;6305062;22;20415;-86
2021/08/10 05:13:55;;;;;;;12.57;10.50;;;15.80;99.90;;;;;;6308378;22;20161;-85
2021/08/10 05:16:27;;;;;;;12.70;9.40;;;16.10;99.90;;;;;;6316707;22;20245;-85
2021/08/10 05:18:56;;;;;;;11.70;9.60;;;16.30;99.90;;;;;;6310346;22;20184;-84
2021/08/10 05:21:26;;;;;;;13.47;10.23;;;16.60;99.90;;;;;;6303559;22;20156;-85
2021/08/10 05:24:00;;;;;;;12.30;10.50;;;16.80;99.90;;;;;;6317581;22;20233;-83
2021/08/10 05:26:28;;;;;;;11.40;10.10;;;17.00;99.90;;;;;;6312492;22;20235;-83
2021/08/10 05:28:57;;;;;;;10.60;9.40;;;17.30;99.90;;;;;;6304684;22;20504;-84
2021/08/10 05:31:26;;;;;;;13.83;10.27;;;17.40;99.90;;;;;;6308356;22;20206;-82
2021/08/10 05:33:55;;;;;;;12.87;9.93;;;17.50;99.90;;;;;;6304396;22;21080;-86
2021/08/10 05:36:24;;;;;;;10.97;9.43;;;17.70;99.90;;;;;;6298747;22;20176;-85
2021/08/10 05:38:54;;;;;;;12.03;10.80;;;17.80;99.90;;;;;;6284306;22;20184;-83
2021/08/10 05:41:25;;;;;;;14.30;11.47;;;17.80;99.90;;;;;;6300462;22;20168;-84
2021/08/10 05:43:54;;;;;;;17.07;11.13;;;18.00;99.90;;;;;;6297351;22;20172;-84
2021/08/10 05:46:23;;;;;;;11.07;9.63;;;18.10;99.90;;;;;;6295856;22;20304;-84
2021/08/10 05:48:52;;;;;;;11.30;10.13;;;18.30;99.90;;;;;;6290870;22;20210;-85
2021/08/10 05:51:22;;;;;;;11.77;9.53;;;18.40;99.90;;;;;;6291904;22;20192;-84
2021/08/10 05:53:51;;;;;;;11.53;10.23;;;18.50;99.90;;;;;;6294993;22;20241;-85
2021/08/10 05:56:19;;;;;;;13.17;10.67;;;18.60;99.90;;;;;;6282862;22;20203;-85
2021/08/10 05:58:50;;;;;;;11.87;10.47;;;18.70;99.90;;;;;;6290790;22;20164;-85
2021/08/10 06:01:19;;;;;;;10.37;8.33;;;18.80;99.70;;;;;;6304636;22;20209;-84
2021/08/10 06:03:47;;;;;;;10.63;9.10;;;19.00;96.50;;;;;;6303398;22;20179;-86
2021/08/10 06:06:17;;;;;;;12.93;9.10;;;19.10;96.10;;;;;;6302717;22;20195;-83
2021/08/10 06:08:47;;;;;;;12.57;8.30;;;19.30;95.30;;;;;;6327585;22;20172;-82
2021/08/10 06:11:15;;;;;;;10.33;8.63;;;19.50;95.30;;;;;;6324173;22;20264;-83
2021/08/10 06:13:45;;;;;;;11.20;8.50;;;19.60;95.00;;;;;;6326995;22;20171;-83
2021/08/10 06:16:15;;;;;;;10.70;8.37;;;19.80;94.40;;;;;;6323066;22;20769;-82
2021/08/10 06:18:45;;;;;;;9.73;7.70;;;19.90;94.50;;;;;;6307994;22;20206;-81
2021/08/10 06:21:14;;;;;;;8.97;7.13;;;20.00;94.20;;;;;;6313640;22;20163;-85
2021/08/10 06:23:42;;;;;;;8.03;7.07;;;20.00;93.90;;;;;;6308553;22;20743;-82
2021/08/10 06:26:11;;;;;;;7.60;6.73;;;20.10;93.50;;;;;;6303765;22;20326;-84
2021/08/10 06:38:04;;;;;;;6.77;5.40;;;20.70;90.60;;;;;;5963856;23;20178;-81
2021/08/10 06:58:14;;;;;;;5.88;4.70;;;21.70;85.50;;;;;;5883965;24;20261;-83
2021/08/10 07:57:29;;;;;;;5.00;4.50;;;23.90;83.90;;;;;;5576842;25;20202;-82
2021/08/10 08:22:05;;;;;;;4.65;4.05;;;24.80;83.30;;;;;;5847549;24;20192;-83
2021/08/10 09:11:07;;;;;;;3.55;3.20;;;26.70;71.50;;;;;;5851013;23;21224;-84
2021/08/10 10:13:10;;;;;;;2.70;2.40;;;26.10;66.30;;;;;;5827855;24;20609;-85
2021/08/10 10:15:40;;;;;;;3.22;2.60;;;26.00;67.00;;;;;;5934038;24;20184;-83
2021/08/10 10:18:10;;;;;;;4.70;3.00;;;25.80;67.50;;;;;;5942551;24;20184;-82
2021/08/10 10:20:42;;;;;;;3.08;2.63;;;25.80;68.30;;;;;;5957693;23;20184;-84
2021/08/10 10:23:18;;;;;;;3.83;2.47;;;25.90;68.50;;;;;;6011720;23;20171;-85
2021/08/10 10:25:49;;;;;;;3.08;2.88;;;25.80;68.50;;;;;;5972445;23;20184;-85
2021/08/10 10:28:19;;;;;;;5.78;3.05;;;25.70;69.00;;;;;;6039999;23;20489;-82
2021/08/10 10:30:50;;;;;;;3.00;2.80;;;25.70;70.50;;;;;;6034772;23;20204;-85
2021/08/10 10:33:24;;;;;;;2.95;2.50;;;25.70;69.70;;;;;;6032924;23;20181;-81
2021/08/10 10:35:54;;;;;;;3.20;2.88;;;25.60;70.00;;;;;;6032350;23;20181;-83
2021/08/10 10:38:24;;;;;;;3.42;3.13;;;25.70;69.80;;;;;;6041397;23;20187;-82
2021/08/10 10:40:55;;;;;;;4.18;2.80;;;25.90;69.80;;;;;;6097447;23;20606;-85
2021/08/10 10:43:29;;;;;;;2.60;2.40;;;26.00;70.10;;;;;;6095331;23;20172;-86
2021/08/10 10:45:58;;;;;;;2.95;2.72;;;26.20;68.50;;;;;;6094466;23;20534;-84
2021/08/10 10:48:46;;;;;;;2.70;2.50;;;26.30;69.60;;;;;;6114087;23;21122;-85
2021/08/10 10:51:17;;;;;;;2.85;2.63;;;26.30;69.30;;;;;;6119015;23;20984;-84
2021/08/10 10:53:47;;;;;;;3.13;2.90;;;26.40;69.60;;;;;;6118772;23;20223;-84
2021/08/10 10:56:35;;;;;;;3.50;3.00;;;26.30;69.30;;;;;;6124493;23;20201;-85
2021/08/10 10:59:34;;;;;;;4.65;2.90;;;26.30;69.50;;;;;;6126248;23;20315;-83
2021/08/10 11:02:14;;;;;;;4.65;2.90;;;26.30;70.20;;;;;;6100277;23;20191;-83
2021/08/10 11:05:23;;;;;;;3.53;3.13;;;26.50;70.50;;;;;;6125226;23;20262;-84
2021/08/10 11:07:53;;;;;;;5.35;2.95;;;26.70;71.10;;;;;;6111394;23;20182;-82
2021/08/10 11:10:39;;;;;;;4.43;3.38;;;26.90;70.70;;;;;;6127979;23;20167;-83
2021/08/10 11:13:37;;;;;;;3.97;2.90;;;26.90;70.10;;;;;;6115637;23;20187;-84
2021/08/10 11:16:10;;;;;;;3.75;3.08;;;26.90;70.10;;;;;;6117591;23;20187;-84
2021/08/10 11:18:39;;;;;;;3.97;3.05;;;27.20;70.30;;;;;;6125704;23;20611;-82
2021/08/10 11:21:25;;;;;;;3.78;3.13;;;27.50;70.50;;;;;;6137101;23;20230;-82
2021/08/10 11:23:56;;;;;;;3.33;3.03;;;27.40;70.10;;;;;;6133639;23;20541;-84
2021/08/10 11:26:39;;;;;;;3.40;3.10;;;27.30;71.10;;;;;;6137636;23;20176;-86
2021/08/10 11:29:09;;;;;;;4.50;2.78;;;27.10;71.00;;;;;;6136882;23;20738;-83
2021/08/10 11:31:53;;;;;;;3.08;2.78;;;27.20;71.20;;;;;;6135909;23;20235;-84
2021/08/10 11:34:34;;;;;;;3.50;3.15;;;27.30;70.60;;;;;;6141873;23;20175;-82
2021/08/10 11:37:27;;;;;;;3.47;3.17;;;27.40;71.10;;;;;;6135423;23;20683;-85
2021/08/10 11:40:09;;;;;;;3.58;3.17;;;27.50;71.80;;;;;;6144681;23;20168;-85
2021/08/10 11:42:41;;;;;;;3.63;3.08;;;27.30;71.30;;;;;;6136952;23;20182;-83
2021/08/10 11:45:11;;;;;;;4.40;3.25;;;27.10;70.90;;;;;;6107598;23;20508;-84
2021/08/10 11:47:41;;;;;;;3.38;3.10;;;27.00;71.50;;;;;;6140443;23;20445;-81
2021/08/10 11:50:10;;;;;;;3.53;3.15;;;26.80;72.20;;;;;;6153284;23;20295;-83
2021/08/10 11:52:47;;;;;;;3.30;3.00;;;26.70;73.00;;;;;;6139034;23;20540;-83
2021/08/10 11:55:17;;;;;;;3.78;3.15;;;26.50;72.80;;;;;;6132493;23;20531;-85
2021/08/10 11:57:59;;;;;;;6.03;3.75;;;26.40;74.10;;;;;;6121114;23;21048;-83
2021/08/10 12:00:29;;;;;;;4.93;3.70;;;26.10;73.90;;;;;;6134196;23;20804;-84
2021/08/10 12:03:00;;;;;;;4.03;3.50;;;26.00;74.90;;;;;;6126603;23;20279;-81
2021/08/10 12:05:31;;;;;;;3.95;3.53;;;25.70;75.00;;;;;;6132601;23;20214;-82
2021/08/10 12:08:01;;;;;;;5.55;4.10;;;25.30;75.80;;;;;;6131854;23;20250;-82
2021/08/10 12:10:34;;;;;;;5.18;3.53;;;25.20;77.40;;;;;;6139583;23;20164;-80
2021/08/10 12:13:20;;;;;;;8.07;4.68;;;25.10;77.90;;;;;;6148124;23;20624;-85
2021/08/10 12:15:49;;;;;;;4.90;4.50;;;24.90;80.20;;;;;;6143715;23;20178;-82
2021/08/10 12:18:21;;;;;;;4.97;4.18;;;24.80;85.30;;;;;;6136296;23;20168;-82
2021/08/10 12:21:01;;;;;;;4.85;4.47;;;24.60;86.30;;;;;;6127289;23;20172;-84
2021/08/10 12:23:43;;;;;;;5.35;4.85;;;24.00;86.90;;;;;;6123137;23;20242;-83
2021/08/10 12:26:16;;;;;;;5.28;4.78;;;23.40;87.40;;;;;;6133406;23;20223;-84
2021/08/10 12:29:04;;;;;;;6.20;5.40;;;23.20;89.40;;;;;;6117354;23;20179;-84
2021/08/10 12:31:35;;;;;;;5.65;4.97;;;23.10;90.40;;;;;;6146463;23;20179;-82
2021/08/10 12:34:11;;;;;;;9.15;5.88;;;22.90;90.80;;;;;;6131463;23;20168;-82
2021/08/10 12:36:51;;;;;;;18.40;7.28;;;22.80;90.40;;;;;;6134583;23;20163;-82
2021/08/10 12:39:27;;;;;;;8.55;6.25;;;22.50;90.20;;;;;;6155776;23;20255;-85
2021/08/10 12:42:01;;;;;;;8.57;6.18;;;21.90;91.60;;;;;;6208957;22;20287;-84
2021/08/10 12:44:34;;;;;;;8.27;5.57;;;21.10;92.90;;;;;;6250150;22;20181;-85
2021/08/10 12:47:32;;;;;;;17.63;4.90;;;20.50;92.60;;;;;;6243021;22;20209;-86
2021/08/10 12:50:22;;;;;;;13.27;5.07;;;18.80;91.00;;;;;;6251837;22;20153;-83
2021/08/10 12:52:54;;;;;;;8.77;4.30;;;16.70;91.30;;;;;;6237248;23;20201;-85
2021/08/10 12:55:24;;;;;;;7.43;4.70;;;15.60;99.80;;;;;;6249123;23;20379;-83
2021/08/10 12:58:04;;;;;;;5.63;4.10;;;15.30;99.90;;;;;;6245513;23;20170;-85
2021/08/10 13:00:35;;;;;;;5.40;3.70;;;15.10;99.90;;;;;;6234995;23;20656;-84
2021/08/10 13:03:21;;;;;;;4.70;4.00;;;15.10;99.90;;;;;;6231764;23;20193;-85
2021/08/10 13:05:54;;;;;;;6.70;5.07;;;15.00;99.90;;;;;;6236446;23;20173;-85
2021/08/10 13:08:24;;;;;;;5.23;4.40;;;15.00;99.90;;;;;;6220267;23;20186;-86
2021/08/10 13:10:53;;;;;;;5.73;4.80;;;15.00;99.90;;;;;;6256082;22;20234;-87
2021/08/10 13:13:25;;;;;;;8.73;5.47;;;15.10;99.90;;;;;;6255953;23;20224;-83
2021/08/10 13:15:55;;;;;;;9.00;5.80;;;15.20;99.90;;;;;;6221282;22;20208;-83
2021/08/10 13:18:25;;;;;;;6.03;5.43;;;15.30;99.90;;;;;;6245965;22;20166;-85
2021/08/10 13:20:58;;;;;;;7.83;6.77;;;15.30;99.90;;;;;;6231201;23;20172;-83
2021/08/10 13:23:29;;;;;;;8.87;7.10;;;15.40;99.90;;;;;;6219173;23;20648;-83
2021/08/10 13:26:02;;;;;;;8.20;7.47;;;15.60;99.90;;;;;;6234008;23;21212;-83
2021/08/10 13:28:33;;;;;;;10.57;8.77;;;15.80;99.90;;;;;;6232760;23;20187;-84
2021/08/10 13:31:10;;;;;;;17.90;8.53;;;15.90;99.90;;;;;;6243943;22;20200;-84
2021/08/10 13:33:57;;;;;;;11.50;7.93;;;16.10;99.90;;;;;;6335313;22;20183;-84
2021/08/10 13:36:29;;;;;;;8.90;8.00;;;16.30;99.90;;;;;;6307206;22;20195;-84
2021/08/10 13:39:00;;;;;;;10.43;9.20;;;16.20;99.90;;;;;;6336627;22;20194;-85
2021/08/10 13:41:31;;;;;;;11.07;8.97;;;16.40;99.90;;;;;;6324027;22;20160;-85
2021/08/10 13:44:03;;;;;;;11.43;9.40;;;16.40;99.90;;;;;;6320146;22;20323;-88
2021/08/10 13:46:32;;;;;;;8.37;7.63;;;16.60;99.90;;;;;;6333813;22;20156;-86
2021/08/10 13:49:03;;;;;;;9.43;7.90;;;16.60;99.90;;;;;;6329775;22;20163;-86
2021/08/10 13:51:33;;;;;;;9.10;8.20;;;16.80;99.90;;;;;;6318716;22;20480;-83
2021/08/10 13:54:03;;;;;;;9.50;8.03;;;16.90;99.90;;;;;;6314847;22;21022;-84
2021/08/10 13:56:32;;;;;;;9.80;8.00;;;17.00;99.90;;;;;;6321584;22;20159;-84
2021/08/10 13:59:03;;;;;;;10.57;8.33;;;17.00;99.90;;;;;;6318834;22;20167;-85
2021/08/10 14:01:36;;;;;;;8.93;8.03;;;17.10;99.90;;;;;;6334796;22;20166;-86
2021/08/10 14:04:07;;;;;;;11.57;9.00;;;17.20;99.90;;;;;;6344424;22;20169;-87
2021/08/10 14:06:39;;;;;;;10.57;8.93;;;17.20;99.90;;;;;;6329870;22;20498;-84
2021/08/10 14:09:08;;;;;;;11.17;9.07;;;17.30;99.90;;;;;;6327984;22;20225;-85
2021/08/10 14:11:37;;;;;;;9.63;8.27;;;17.30;99.90;;;;;;6333242;22;20175;-83
2021/08/10 14:14:05;;;;;;;10.70;8.63;;;17.30;99.90;;;;;;6336621;22;20689;-83
2021/08/10 14:16:34;;;;;;;9.57;8.57;;;17.30;99.90;;;;;;6343314;22;20164;-85
2021/08/10 14:19:03;;;;;;;9.73;8.83;;;17.40;99.90;;;;;;6342083;22;20163;-84
2021/08/10 14:21:32;;;;;;;11.97;8.67;;;17.40;99.90;;;;;;6346957;22;20277;-84
2021/08/10 14:24:02;;;;;;;10.27;8.30;;;17.40;99.90;;;;;;6361394;22;20147;-85
2021/08/10 14:26:30;;;;;;;10.07;9.07;;;17.50;99.90;;;;;;6356188;22;20162;-87
2021/08/10 14:29:00;;;;;;;10.90;9.80;;;17.40;99.90;;;;;;6356743;22;20148;-87
2021/08/10 14:31:29;;;;;;;11.07;9.47;;;17.40;99.90;;;;;;6357993;22;20167;-88
2021/08/10 14:33:58;;;;;;;10.33;9.33;;;17.60;99.90;;;;;;6345419;22;20285;-88
2021/08/10 14:36:27;;;;;;;8.73;7.93;;;17.50;99.90;;;;;;6356239;22;20176;-82
2021/08/10 14:38:55;;;;;;;8.77;7.57;;;17.40;99.90;;;;;;6363879;22;20164;-85
2021/08/10 14:41:26;;;;;;;11.70;9.90;;;17.40;99.90;;;;;;6349429;22;20593;-84
2021/08/10 14:43:55;;;;;;;11.77;10.63;;;17.30;99.90;;;;;;6355219;22;20167;-85
2021/08/10 14:46:26;;;;;;;11.40;10.03;;;17.40;99.90;;;;;;6353824;22;20171;-85
2021/08/10 14:48:56;;;;;;;11.73;10.50;;;17.40;99.90;;;;;;6349329;22;20493;-86
2021/08/10 14:51:26;;;;;;;10.50;9.03;;;17.50;99.90;;;;;;6354039;22;20193;-84
2021/08/10 14:53:57;;;;;;;12.10;10.83;;;17.50;99.90;;;;;;6317351;22;20207;-84
2021/08/10 14:56:36;;;;;;;14.80;11.27;;;17.50;99.90;;;;;;6347104;22;20234;-85
2021/08/10 14:59:07;;;;;;;11.63;10.53;;;17.50;99.90;;;;;;6353004;22;20238;-84
2021/08/10 15:01:50;;;;;;;12.57;10.93;;;17.60;99.90;;;;;;6346707;22;20181;-85
2021/08/10 15:04:20;;;;;;;11.80;10.60;;;17.70;99.90;;;;;;6349273;22;20156;-84
2021/08/10 15:06:50;;;;;;;12.50;11.20;;;17.70;99.90;;;;;;6332253;22;20171;-85
2021/08/10 15:09:25;;;;;;;10.30;9.30;;;17.70;99.90;;;;;;6348807;22;20286;-86
2021/08/10 15:11:59;;;;;;;9.87;8.63;;;17.70;99.90;;;;;;6344946;22;20170;-86
2021/08/10 15:14:29;;;;;;;12.47;10.33;;;17.70;99.90;;;;;;6311868;22;20337;-85
2021/08/10 15:16:59;;;;;;;12.83;10.33;;;17.70;99.90;;;;;;6341428;22;20275;-86
2021/08/10 15:19:28;;;;;;;11.37;9.40;;;17.80;99.90;;;;;;6341888;22;20178;-85
2021/08/10 15:21:59;;;;;;;10.53;9.13;;;17.80;99.90;;;;;;6355468;22;20251;-82
2021/08/10 15:24:29;;;;;;;8.87;8.13;;;17.90;99.90;;;;;;6349413;22;20421;-83
2021/08/10 15:27:12;;;;;;;9.73;8.70;;;17.80;99.90;;;;;;6342198;22;20589;-84
2021/08/10 15:29:41;;;;;;;9.60;8.07;;;17.80;99.90;;;;;;6345957;22;20182;-86
2021/08/10 15:32:12;;;;;;;14.47;11.77;;;17.80;99.90;;;;;;6355197;22;20160;-85
2021/08/10 15:34:43;;;;;;;10.80;9.70;;;17.70;99.90;;;;;;6355192;22;20188;-87
2021/08/10 15:37:13;;;;;;;10.87;9.87;;;17.70;99.90;;;;;;6347236;22;20160;-85
2021/08/10 15:39:43;;;;;;;12.20;9.83;;;17.60;99.90;;;;;;6342022;22;20765;-85
2021/08/10 15:42:26;;;;;;;12.83;11.53;;;17.70;99.90;;;;;;6341496;22;20163;-87
2021/08/10 15:44:56;;;;;;;10.30;9.07;;;17.80;99.90;;;;;;6343019;22;20170;-85
2021/08/10 15:47:25;;;;;;;10.77;8.93;;;17.80;99.90;;;;;;6304054;22;20275;-85
2021/08/10 15:49:54;;;;;;;8.53;7.70;;;17.90;99.90;;;;;;6340315;22;20266;-87
2021/08/10 15:52:24;;;;;;;8.67;7.77;;;18.50;99.90;;;;;;6355818;22;20167;-86
2021/08/10 15:54:53;;;;;;;6.47;5.97;;;19.10;99.90;;;;;;6352390;22;20175;-84
2021/08/10 15:57:22;;;;;;;5.77;5.17;;;19.50;99.90;;;;;;6353810;22;20159;-84
2021/08/10 15:59:51;;;;;;;5.60;5.03;;;19.90;99.90;;;;;;6365424;22;20159;-84
2021/08/10 16:02:21;;;;;;;6.47;4.47;;;19.70;99.90;;;;;;6329620;22;20174;-85
2021/08/10 16:04:49;;;;;;;5.60;4.67;;;19.40;99.90;;;;;;6369519;22;20159;-85
2021/08/10 16:07:21;;;;;;;5.20;4.70;;;19.10;99.90;;;;;;6359196;22;20148;-84
2021/08/10 16:09:49;;;;;;;5.20;4.70;;;18.80;99.90;;;;;;6357314;22;20171;-84
2021/08/10 16:12:18;;;;;;;5.50;5.00;;;18.50;99.90;;;;;;6347295;22;20190;-84
2021/08/10 16:14:49;;;;;;;6.57;5.97;;;18.50;99.90;;;;;;6351153;22;20810;-82
2021/08/10 16:17:18;;;;;;;6.50;6.00;;;18.40;99.90;;;;;;6349129;22;20172;-83
2021/08/10 16:19:46;;;;;;;6.70;6.00;;;18.50;99.90;;;;;;6349472;22;20163;-85
2021/08/10 16:22:17;;;;;;;6.60;6.00;;;18.50;99.90;;;;;;6347789;22;20164;-84
2021/08/10 16:24:45;;;;;;;10.10;6.63;;;18.40;99.90;;;;;;6350463;22;20182;-86
2021/08/10 16:27:15;;;;;;;7.70;6.90;;;18.50;99.90;;;;;;6347826;22;20213;-85
2021/08/10 16:29:44;;;;;;;6.90;6.37;;;18.50;99.90;;;;;;6351343;22;20164;-85
2021/08/10 16:32:14;;;;;;;8.00;7.20;;;18.40;99.90;;;;;;6353890;22;20166;-84
2021/08/10 16:34:57;;;;;;;7.23;6.53;;;18.40;99.90;;;;;;6350956;22;20716;-86
2021/08/10 16:37:26;;;;;;;8.20;7.40;;;18.30;99.90;;;;;;6344430;22;20164;-84